Time;durP1;ratioP1;P1;durP2;ratioP2;P2;SDS_P1;SDS_P2;PMS_P1;PMS_P2;Temp;Humidity;BMP_temperature;BMP_pressure;BME280_temperature;BME280_humidity;BME280_pressure;Samples;Min_cycle;Max_cycle;Signal;HPM_P1;HPM_P2
2023/03/20 00:01:27;;;;;;;4.15;2.88;;;;;;;;;;5006864;28;20545;-59
2023/03/20 00:03:53;;;;;;;4.93;2.50;;;;;;;;;;5008353;28;20049;-58
2023/03/20 00:06:24;;;;;;;4.38;2.67;;;;;;;;;;5008430;28;20049;-60
2023/03/20 00:08:53;;;;;;;4.50;2.50;;;;;;;;;;5007982;28;20054;-60
2023/03/20 00:11:29;;;;;;;3.58;2.30;;;;;;;;;;5007972;28;20045;-60
2023/03/20 00:13:58;;;;;;;4.00;2.00;;;;;;;;;;5007258;28;20044;-60
2023/03/20 00:16:31;;;;;;;4.57;2.70;;;;;;;;;;5007062;28;20412;-59
2023/03/20 00:18:58;;;;;;;3.40;2.00;;;;;;;;;;4989836;28;20041;-59
2023/03/20 00:21:25;;;;;;;3.00;2.05;;;;;;;;;;5005933;28;20041;-59
2023/03/20 00:23:53;;;;;;;2.58;1.80;;;;;;;;;;5007149;28;20508;-60
2023/03/20 00:26:23;;;;;;;2.55;1.85;;;;;;;;;;5006990;28;20045;-60
2023/03/20 00:28:50;;;;;;;2.53;1.60;;;;;;;;;;5007639;28;20041;-59
2023/03/20 00:31:28;;;;;;;2.38;1.70;;;;;;;;;;5006270;28;20041;-59
2023/03/20 00:33:57;;;;;;;2.10;1.73;;;;;;;;;;5005819;28;20025;-58
2023/03/20 00:36:23;;;;;;;2.05;1.60;;;;;;;;;;5005514;28;20519;-59
2023/03/20 00:38:50;;;;;;;2.33;1.42;;;;;;;;;;5005993;28;20042;-59
2023/03/20 00:41:34;;;;;;;2.15;1.60;;;;;;;;;;5006733;28;20038;-59
2023/03/20 00:44:22;;;;;;;2.03;1.60;;;;;;;;;;5034073;28;20037;-59
2023/03/20 00:47:01;;;;;;;2.10;1.60;;;;;;;;;;4989568;28;20491;-59
2023/03/20 00:49:33;;;;;;;1.45;1.25;;;;;;;;;;5001310;28;20041;-59
2023/03/20 00:52:02;;;;;;;1.40;1.30;;;;;;;;;;5006473;28;20029;-59
2023/03/20 00:54:29;;;;;;;1.70;1.30;;;;;;;;;;5007934;28;20033;-60
2023/03/20 00:57:01;;;;;;;2.17;1.40;;;;;;;;;;5007763;28;20037;-58
2023/03/20 00:59:30;;;;;;;1.48;1.30;;;;;;;;;;5007902;28;20025;-59
2023/03/20 01:01:57;;;;;;;;;;;;;;;;;;5008362;28;20057;-59
2023/03/20 01:04:27;;;;;;;2.35;1.48;;;;;;;;;;5007267;28;19913;-60
2023/03/20 01:06:53;;;;;;;2.15;1.25;;;;;;;;;;5007399;28;20038;-59
2023/03/20 01:09:19;;;;;;;1.52;1.13;;;;;;;;;;5007456;28;20041;-59
2023/03/20 01:11:46;;;;;;;1.10;0.95;;;;;;;;;;5006719;28;20060;-58
2023/03/20 01:14:14;;;;;;;1.67;1.20;;;;;;;;;;5007384;28;20101;-59
2023/03/20 01:16:41;;;;;;;1.83;1.20;;;;;;;;;;5007935;28;20026;-59
2023/03/20 01:19:12;;;;;;;3.75;1.33;;;;;;;;;;5006841;28;20531;-59
2023/03/20 01:21:38;;;;;;;1.73;1.25;;;;;;;;;;5034999;28;20057;-59
2023/03/20 01:24:04;;;;;;;2.42;1.20;;;;;;;;;;5007555;28;20049;-59
2023/03/20 01:26:41;;;;;;;2.20;1.30;;;;;;;;;;5007760;28;20046;-59
2023/03/20 01:29:18;;;;;;;2.15;1.20;;;;;;;;;;5037283;28;20049;-59
2023/03/20 01:31:44;;;;;;;1.30;1.20;;;;;;;;;;5005493;28;20034;-59
2023/03/20 01:34:11;;;;;;;1.20;1.10;;;;;;;;;;5006177;28;20034;-59
2023/03/20 01:36:37;;;;;;;1.20;1.10;;;;;;;;;;5008857;28;20037;-59
2023/03/20 01:39:05;;;;;;;1.13;0.93;;;;;;;;;;5009866;28;20038;-59
2023/03/20 01:41:31;;;;;;;2.22;1.25;;;;;;;;;;5009872;28;20484;-59
2023/03/20 01:44:05;;;;;;;1.33;1.05;;;;;;;;;;5009136;28;20415;-58
2023/03/20 01:46:40;;;;;;;1.67;1.00;;;;;;;;;;5010487;28;20407;-59
2023/03/20 01:49:19;;;;;;;2.25;0.95;;;;;;;;;;5009076;28;20037;-59
2023/03/20 01:51:47;;;;;;;2.42;1.13;;;;;;;;;;5005217;28;20060;-60
2023/03/20 01:54:22;;;;;;;1.10;0.90;;;;;;;;;;5010075;28;20674;-59
2023/03/20 01:57:16;;;;;;;1.30;0.98;;;;;;;;;;5008867;28;20053;-59
2023/03/20 01:59:59;;;;;;;0.70;0.70;;;;;;;;;;5009452;28;20045;-59
2023/03/20 02:02:29;;;;;;;1.05;0.82;;;;;;;;;;5009506;28;20046;-59
2023/03/20 02:05:02;;;;;;;3.17;0.93;;;;;;;;;;5036340;28;20046;-59
2023/03/20 02:07:30;;;;;;;1.25;0.90;;;;;;;;;;5032533;28;20045;-59
2023/03/20 02:10:02;;;;;;;1.00;0.90;;;;;;;;;;5011439;28;20038;-58
2023/03/20 02:12:41;;;;;;;0.93;0.82;;;;;;;;;;5010286;28;20053;-59
2023/03/20 02:15:11;;;;;;;0.98;0.90;;;;;;;;;;5009681;28;20045;-59
2023/03/20 02:17:57;;;;;;;1.00;0.82;;;;;;;;;;5011146;28;20034;-59
2023/03/20 02:21:06;;;;;;;1.50;1.02;;;;;;;;;;5008643;28;20046;-60
2023/03/20 02:23:52;;;;;;;0.90;0.80;;;;;;;;;;5016902;28;20496;-59
2023/03/20 02:26:37;;;;;;;1.00;0.90;;;;;;;;;;5009158;28;20041;-58
2023/03/20 02:29:12;;;;;;;1.38;0.90;;;;;;;;;;5030751;28;20037;-59
2023/03/20 02:32:10;;;;;;;0.80;0.70;;;;;;;;;;5008758;28;20034;-59
2023/03/20 02:34:55;;;;;;;1.20;0.90;;;;;;;;;;5009555;28;20042;-60
2023/03/20 02:37:28;;;;;;;1.55;0.90;;;;;;;;;;5009072;28;20041;-59
2023/03/20 02:40:18;;;;;;;1.60;0.90;;;;;;;;;;5008617;28;20062;-59
2023/03/20 02:43:01;;;;;;;1.00;0.90;;;;;;;;;;5012884;28;20108;-58
2023/03/20 02:45:30;;;;;;;1.10;1.00;;;;;;;;;;5008369;28;20033;-59
2023/03/20 02:48:15;;;;;;;1.35;0.80;;;;;;;;;;5007656;28;20053;-59
2023/03/20 02:50:49;;;;;;;0.75;0.70;;;;;;;;;;5034788;28;20038;-60
2023/03/20 02:53:19;;;;;;;1.70;1.60;;;;;;;;;;5010007;28;20403;-60
2023/03/20 02:55:55;;;;;;;1.85;0.85;;;;;;;;;;5009136;28;20053;-59
2023/03/20 02:58:43;;;;;;;0.70;0.70;;;;;;;;;;5010262;28;20038;-59
2023/03/20 03:01:12;;;;;;;0.77;0.70;;;;;;;;;;5008330;28;20034;-59
2023/03/20 03:03:52;;;;;;;2.33;0.80;;;;;;;;;;5008563;28;20050;-59
2023/03/20 03:06:37;;;;;;;1.35;0.80;;;;;;;;;;5010038;28;21449;-60
2023/03/20 03:09:14;;;;;;;1.02;0.88;;;;;;;;;;5008341;28;20045;-60
2023/03/20 03:11:47;;;;;;;0.60;0.60;;;;;;;;;;5008128;28;20053;-59
2023/03/20 03:14:37;;;;;;;0.77;0.73;;;;;;;;;;5007945;28;20038;-59
2023/03/20 03:17:08;;;;;;;1.58;0.90;;;;;;;;;;5007657;28;20034;-58
2023/03/20 03:19:37;;;;;;;1.20;1.00;;;;;;;;;;5007113;28;20034;-59
2023/03/20 03:22:04;;;;;;;0.80;0.70;;;;;;;;;;5008427;28;20404;-60
2023/03/20 03:24:36;;;;;;;0.90;0.70;;;;;;;;;;5008643;28;20038;-59
2023/03/20 03:27:16;;;;;;;1.30;0.68;;;;;;;;;;5007564;28;20528;-59
2023/03/20 03:29:44;;;;;;;;;;;;;;;;;;5008369;28;20025;-58
2023/03/20 03:32:43;;;;;;;0.90;0.73;;;;;;;;;;5007782;28;20383;-59
2023/03/20 03:35:15;;;;;;;2.53;0.77;;;;;;;;;;5005899;28;20053;-59
2023/03/20 03:38:08;;;;;;;0.68;0.60;;;;;;;;;;4992705;28;20033;-58
2023/03/20 03:40:52;;;;;;;0.35;0.35;;;;;;;;;;5007707;28;20515;-59
2023/03/20 03:43:32;;;;;;;0.93;0.75;;;;;;;;;;5008471;28;20034;-59
2023/03/20 03:46:44;;;;;;;0.60;0.60;;;;;;;;;;5008731;28;20034;-58
2023/03/20 03:49:18;;;;;;;1.33;0.60;;;;;;;;;;5006769;28;20050;-59
2023/03/20 03:51:48;;;;;;;0.63;0.60;;;;;;;;;;5008257;28;20052;-59
2023/03/20 03:54:24;;;;;;;0.65;0.60;;;;;;;;;;5009387;28;20052;-60
2023/03/20 03:57:13;;;;;;;1.08;0.70;;;;;;;;;;5023513;28;20038;-59
2023/03/20 03:59:43;;;;;;;1.20;0.63;;;;;;;;;;5005975;28;20030;-58
2023/03/20 04:02:10;;;;;;;1.65;1.17;;;;;;;;;;4991911;28;20288;-59
2023/03/20 04:04:43;;;;;;;1.10;0.90;;;;;;;;;;5008369;28;20049;-58
2023/03/20 04:07:09;;;;;;;1.60;0.98;;;;;;;;;;5008448;28;20491;-60
2023/03/20 04:09:36;;;;;;;1.00;0.70;;;;;;;;;;5008428;28;20029;-58
2023/03/20 04:12:02;;;;;;;1.33;1.00;;;;;;;;;;5009469;28;20045;-58
2023/03/20 04:14:28;;;;;;;1.30;0.95;;;;;;;;;;5007717;28;20045;-59
2023/03/20 04:16:54;;;;;;;1.45;1.30;;;;;;;;;;5007613;28;20045;-59
2023/03/20 04:19:21;;;;;;;1.90;1.10;;;;;;;;;;5006321;28;20046;-59
2023/03/20 04:21:47;;;;;;;1.60;1.50;;;;;;;;;;5007322;28;20057;-59
2023/03/20 04:24:14;;;;;;;2.17;1.35;;;;;;;;;;5004490;28;20045;-59
2023/03/20 04:26:40;;;;;;;1.30;1.20;;;;;;;;;;5009236;28;20513;-58
2023/03/20 04:29:07;;;;;;;1.35;1.25;;;;;;;;;;5007084;28;20045;-59
2023/03/20 04:31:42;;;;;;;1.73;1.50;;;;;;;;;;4985846;28;20407;-59
2023/03/20 04:34:08;;;;;;;1.98;1.40;;;;;;;;;;5008937;28;20046;-60
2023/03/20 04:36:55;;;;;;;1.75;1.60;;;;;;;;;;5008613;28;20053;-59
2023/03/20 04:39:26;;;;;;;1.60;1.50;;;;;;;;;;5003152;28;20030;-59
2023/03/20 04:41:53;;;;;;;1.60;1.50;;;;;;;;;;5007403;28;20042;-58
2023/03/20 04:44:19;;;;;;;1.83;1.33;;;;;;;;;;5006490;28;20038;-60
2023/03/20 04:46:46;;;;;;;1.80;1.35;;;;;;;;;;5006691;28;20048;-59
2023/03/20 04:49:16;;;;;;;1.67;1.50;;;;;;;;;;5006194;28;20052;-59
2023/03/20 04:51:42;;;;;;;1.42;1.33;;;;;;;;;;5006980;28;20042;-59
2023/03/20 04:54:11;;;;;;;1.50;1.40;;;;;;;;;;5007202;28;20034;-59
2023/03/20 04:56:37;;;;;;;2.40;1.45;;;;;;;;;;5007231;28;20041;-58
2023/03/20 04:59:29;;;;;;;2.47;1.17;;;;;;;;;;5008512;28;20045;-59
2023/03/20 05:01:56;;;;;;;2.28;1.73;;;;;;;;;;5006101;28;20041;-59
2023/03/20 05:04:22;;;;;;;2.20;1.88;;;;;;;;;;5006745;28;20520;-58
2023/03/20 05:06:48;;;;;;;1.90;1.70;;;;;;;;;;5007497;28;20061;-60
2023/03/20 05:09:16;;;;;;;1.73;1.52;;;;;;;;;;5006065;28;20046;-59
2023/03/20 05:11:43;;;;;;;1.90;1.60;;;;;;;;;;5006797;28;20097;-59
2023/03/20 05:14:29;;;;;;;1.60;1.50;;;;;;;;;;5002304;28;20045;-59
2023/03/20 05:17:14;;;;;;;1.50;1.40;;;;;;;;;;5006796;28;20030;-60
2023/03/20 05:19:59;;;;;;;3.28;1.60;;;;;;;;;;5006665;28;20046;-59
2023/03/20 05:22:48;;;;;;;2.33;1.70;;;;;;;;;;5007196;28;20049;-59
2023/03/20 05:25:35;;;;;;;1.83;1.55;;;;;;;;;;5002542;28;20054;-59
2023/03/20 05:28:11;;;;;;;2.38;1.40;;;;;;;;;;5005375;28;20511;-59
2023/03/20 05:30:50;;;;;;;1.30;1.20;;;;;;;;;;5004978;28;20070;-59
2023/03/20 05:33:35;;;;;;;0.95;0.93;;;;;;;;;;5008411;28;20500;-60
2023/03/20 05:36:27;;;;;;;3.00;1.20;;;;;;;;;;5008542;28;20423;-61
2023/03/20 05:39:08;;;;;;;1.20;1.00;;;;;;;;;;5006112;28;20049;-60
2023/03/20 05:42:03;;;;;;;1.42;0.93;;;;;;;;;;5002824;28;20057;-60
2023/03/20 05:44:50;;;;;;;1.05;0.95;;;;;;;;;;5004069;28;20042;-60
2023/03/20 05:47:42;;;;;;;3.10;1.80;;;;;;;;;;4998098;28;20118;-60
2023/03/20 05:50:45;;;;;;;1.33;1.00;;;;;;;;;;5003910;28;20428;-60
2023/03/20 05:53:12;;;;;;;1.00;0.90;;;;;;;;;;5009791;28;20064;-60
2023/03/20 05:56:01;;;;;;;5.05;1.40;;;;;;;;;;5009076;28;20534;-60
2023/03/20 05:58:46;;;;;;;2.15;1.00;;;;;;;;;;5005194;28;20045;-59
2023/03/20 06:01:32;;;;;;;1.65;1.20;;;;;;;;;;5000666;28;20053;-59
2023/03/20 06:04:20;;;;;;;1.05;0.82;;;;;;;;;;5005537;28;20037;-60
2023/03/20 06:07:03;;;;;;;1.95;0.95;;;;;;;;;;4990301;28;20038;-60
2023/03/20 06:09:29;;;;;;;1.48;0.82;;;;;;;;;;5003568;28;20029;-60
2023/03/20 06:11:57;;;;;;;2.58;1.40;;;;;;;;;;5006458;28;20045;-61
2023/03/20 06:14:23;;;;;;;3.25;1.60;;;;;;;;;;5006861;28;20041;-59
2023/03/20 06:16:56;;;;;;;1.42;0.95;;;;;;;;;;4989530;28;20037;-61
2023/03/20 06:19:23;;;;;;;1.77;1.08;;;;;;;;;;5002613;28;20058;-60
2023/03/20 06:21:50;;;;;;;1.00;0.90;;;;;;;;;;5007310;28;20037;-60
2023/03/20 06:24:19;;;;;;;1.15;0.93;;;;;;;;;;4990805;28;20045;-61
2023/03/20 06:26:45;;;;;;;1.42;0.80;;;;;;;;;;5009966;28;20046;-61
2023/03/20 06:29:13;;;;;;;1.80;1.08;;;;;;;;;;4992557;28;20034;-60
2023/03/20 06:31:39;;;;;;;9.07;1.65;;;;;;;;;;5009064;28;20045;-59
2023/03/20 06:34:09;;;;;;;1.45;1.00;;;;;;;;;;5009547;28;20485;-59
2023/03/20 06:36:42;;;;;;;1.10;0.75;;;;;;;;;;5009108;28;20038;-60
2023/03/20 06:39:14;;;;;;;1.00;0.68;;;;;;;;;;5008866;28;20026;-60
2023/03/20 06:41:41;;;;;;;2.90;0.70;;;;;;;;;;5009058;28;20049;-61
2023/03/20 06:44:10;;;;;;;1.38;0.70;;;;;;;;;;5008124;28;20042;-59
2023/03/20 06:46:54;;;;;;;3.47;1.33;;;;;;;;;;5004254;28;20037;-60
2023/03/20 06:49:21;;;;;;;10.02;2.45;;;;;;;;;;5025012;28;20036;-61
2023/03/20 06:51:47;;;;;;;2.30;1.30;;;;;;;;;;5008325;28;20061;-60
2023/03/20 06:54:20;;;;;;;0.93;0.70;;;;;;;;;;5008703;28;20052;-60
2023/03/20 06:56:46;;;;;;;0.93;0.70;;;;;;;;;;5008747;28;20057;-59
2023/03/20 06:59:13;;;;;;;1.45;1.10;;;;;;;;;;5000984;28;20393;-60
2023/03/20 07:01:39;;;;;;;2.72;1.45;;;;;;;;;;5007576;28;20037;-60
2023/03/20 07:04:06;;;;;;;2.22;1.20;;;;;;;;;;5009384;28;20041;-59
2023/03/20 07:06:41;;;;;;;2.10;1.17;;;;;;;;;;5007879;28;20056;-60
2023/03/20 07:09:08;;;;;;;3.53;1.13;;;;;;;;;;5008224;28;20045;-60
2023/03/20 07:11:36;;;;;;;1.90;1.63;;;;;;;;;;4973237;28;20547;-61
2023/03/20 07:14:02;;;;;;;1.30;1.02;;;;;;;;;;5004789;28;20071;-60
2023/03/20 07:16:42;;;;;;;3.80;1.08;;;;;;;;;;5005342;28;20038;-60
2023/03/20 07:19:08;;;;;;;1.77;1.23;;;;;;;;;;5008030;28;20041;-59
2023/03/20 07:21:38;;;;;;;1.88;1.05;;;;;;;;;;5007552;28;20037;-60
2023/03/20 07:24:06;;;;;;;1.40;0.90;;;;;;;;;;5006929;28;20531;-60
2023/03/20 07:26:32;;;;;;;1.67;1.00;;;;;;;;;;5002339;28;20049;-60
2023/03/20 07:28:58;;;;;;;1.50;0.90;;;;;;;;;;5008167;28;20038;-59
2023/03/20 07:31:28;;;;;;;1.05;1.05;;;;;;;;;;5001563;28;20041;-60
2023/03/20 07:34:15;;;;;;;1.65;1.00;;;;;;;;;;5003841;28;20042;-59
2023/03/20 07:36:41;;;;;;;2.13;1.13;;;;;;;;;;5006577;28;20044;-60
2023/03/20 07:39:09;;;;;;;3.75;1.45;;;;;;;;;;5006338;28;20492;-59
2023/03/20 07:41:38;;;;;;;2.78;1.50;;;;;;;;;;5004705;28;20041;-60
2023/03/20 07:44:09;;;;;;;1.65;1.23;;;;;;;;;;5003024;28;20038;-60
2023/03/20 07:46:52;;;;;;;1.52;1.10;;;;;;;;;;5006296;28;20041;-60
2023/03/20 07:49:22;;;;;;;1.90;1.30;;;;;;;;;;5007459;28;20396;-59
2023/03/20 07:51:49;;;;;;;2.03;1.20;;;;;;;;;;5009216;28;20034;-60
2023/03/20 07:54:16;;;;;;;1.92;0.88;;;;;;;;;;5006132;28;20044;-59
2023/03/20 07:56:43;;;;;;;3.13;0.95;;;;;;;;;;5005765;28;20049;-60
2023/03/20 07:59:09;;;;;;;2.42;0.73;;;;;;;;;;5005443;28;20030;-59
2023/03/20 08:01:35;;;;;;;1.35;1.00;;;;;;;;;;5008956;28;20046;-60
2023/03/20 08:04:02;;;;;;;1.20;1.10;;;;;;;;;;5008456;28;20034;-60
2023/03/20 08:06:28;;;;;;;2.45;1.60;;;;;;;;;;5007510;28;20056;-60
2023/03/20 08:08:55;;;;;;;2.88;1.52;;;;;;;;;;5007596;28;20053;-59
2023/03/20 08:11:22;;;;;;;2.42;1.25;;;;;;;;;;5007934;28;20498;-61
2023/03/20 08:13:48;;;;;;;1.33;0.85;;;;;;;;;;5007442;28;20053;-60
2023/03/20 08:16:15;;;;;;;1.20;1.10;;;;;;;;;;5007187;28;20037;-60
2023/03/20 08:18:41;;;;;;;2.53;0.90;;;;;;;;;;5005519;28;20033;-60
2023/03/20 08:21:08;;;;;;;1.23;0.75;;;;;;;;;;5006509;28;20041;-60
2023/03/20 08:23:34;;;;;;;1.20;0.90;;;;;;;;;;5008362;28;20045;-60
2023/03/20 08:26:00;;;;;;;1.00;0.90;;;;;;;;;;5007286;28;20880;-59
2023/03/20 08:28:26;;;;;;;1.45;0.90;;;;;;;;;;5007902;28;20049;-60
2023/03/20 08:30:52;;;;;;;1.55;1.10;;;;;;;;;;5007795;28;20034;-59
2023/03/20 08:33:19;;;;;;;0.90;0.90;;;;;;;;;;5008590;28;20064;-59
2023/03/20 08:35:56;;;;;;;1.08;0.90;;;;;;;;;;5006579;28;20053;-59
2023/03/20 08:38:22;;;;;;;0.85;0.80;;;;;;;;;;5004931;28;20030;-59
2023/03/20 08:40:48;;;;;;;0.90;0.90;;;;;;;;;;5007061;28;20041;-59
2023/03/20 08:43:14;;;;;;;0.90;0.80;;;;;;;;;;5007760;28;20049;-60
2023/03/20 08:45:40;;;;;;;1.00;1.00;;;;;;;;;;5008260;28;20042;-59
2023/03/20 08:48:07;;;;;;;2.55;1.10;;;;;;;;;;5004862;28;20419;-60
2023/03/20 08:50:33;;;;;;;1.90;1.20;;;;;;;;;;5008600;28;20518;-59
2023/03/20 08:53:00;;;;;;;3.42;1.00;;;;;;;;;;5006585;28;20046;-60
2023/03/20 08:55:26;;;;;;;1.50;1.40;;;;;;;;;;5008368;28;20113;-58
2023/03/20 08:57:53;;;;;;;1.58;1.20;;;;;;;;;;5007845;28;20073;-60
2023/03/20 09:00:20;;;;;;;2.08;1.08;;;;;;;;;;5006570;28;20142;-60
2023/03/20 09:02:46;;;;;;;0.95;0.95;;;;;;;;;;5007521;28;20049;-60
2023/03/20 09:05:12;;;;;;;0.93;0.90;;;;;;;;;;5008263;28;20042;-60
2023/03/20 09:07:38;;;;;;;2.03;1.05;;;;;;;;;;5003927;28;20061;-60
2023/03/20 09:10:05;;;;;;;1.77;1.00;;;;;;;;;;5007035;28;20050;-60
2023/03/20 09:12:31;;;;;;;1.10;1.00;;;;;;;;;;5008639;28;20054;-59
2023/03/20 09:14:58;;;;;;;1.25;1.15;;;;;;;;;;5005240;28;20046;-61
2023/03/20 09:17:25;;;;;;;1.35;1.05;;;;;;;;;;5004699;28;20030;-60
2023/03/20 09:19:51;;;;;;;5.85;1.25;;;;;;;;;;5006768;28;20054;-60
2023/03/20 09:22:17;;;;;;;3.40;1.42;;;;;;;;;;5003779;28;20048;-60
2023/03/20 09:24:44;;;;;;;3.45;1.30;;;;;;;;;;5008361;28;20042;-59
2023/03/20 09:27:12;;;;;;;1.25;1.15;;;;;;;;;;5007619;28;20053;-60
2023/03/20 09:29:42;;;;;;;1.42;1.30;;;;;;;;;;5007810;28;20050;-59
2023/03/20 09:32:13;;;;;;;2.47;1.10;;;;;;;;;;5005778;28;20029;-61
2023/03/20 09:34:39;;;;;;;1.80;1.13;;;;;;;;;;5007291;28;20034;-60
2023/03/20 09:37:06;;;;;;;1.38;1.27;;;;;;;;;;5006631;28;20038;-59
2023/03/20 09:39:33;;;;;;;2.30;1.00;;;;;;;;;;5005405;28;20042;-60
2023/03/20 09:42:07;;;;;;;2.08;1.08;;;;;;;;;;5002920;28;20061;-60
2023/03/20 09:44:51;;;;;;;1.48;1.10;;;;;;;;;;5004335;28;20075;-60
2023/03/20 09:47:51;;;;;;;2.13;1.20;;;;;;;;;;5007289;28;20475;-59
2023/03/20 09:50:45;;;;;;;1.65;1.33;;;;;;;;;;5006773;28;20038;-60
2023/03/20 09:53:21;;;;;;;2.35;1.30;;;;;;;;;;5005250;28;20042;-57
2023/03/20 09:55:48;;;;;;;1.95;1.20;;;;;;;;;;5006061;28;20053;-57
2023/03/20 09:58:32;;;;;;;1.58;1.10;;;;;;;;;;5010139;28;20044;-58
2023/03/20 10:01:01;;;;;;;2.80;1.08;;;;;;;;;;5008864;28;20042;-57
2023/03/20 10:03:41;;;;;;;1.58;1.27;;;;;;;;;;5008865;28;20135;-57
2023/03/20 10:06:15;;;;;;;1.70;1.10;;;;;;;;;;5011384;28;20026;-57
2023/03/20 10:08:43;;;;;;;2.10;1.10;;;;;;;;;;5009830;28;20038;-58
2023/03/20 10:11:28;;;;;;;1.40;0.98;;;;;;;;;;5009337;28;20038;-57
2023/03/20 10:14:20;;;;;;;1.60;1.02;;;;;;;;;;5007086;28;20029;-57
2023/03/20 10:16:59;;;;;;;2.35;0.90;;;;;;;;;;5007320;28;20506;-57
2023/03/20 10:19:30;;;;;;;1.67;1.10;;;;;;;;;;5006453;28;20038;-57
2023/03/20 10:22:01;;;;;;;1.77;0.90;;;;;;;;;;5009060;28;20531;-57
2023/03/20 10:24:30;;;;;;;0.88;0.80;;;;;;;;;;5038017;28;20038;-56
2023/03/20 10:27:20;;;;;;;2.53;1.03;;;;;;;;;;5007964;28;20049;-57
2023/03/20 10:30:11;;;;;;;1.80;1.00;;;;;;;;;;5005273;28;20045;-56
2023/03/20 10:32:42;;;;;;;1.15;1.05;;;;;;;;;;5008309;28;20396;-59
2023/03/20 10:35:08;;;;;;;0.70;0.70;;;;;;;;;;5009633;28;20057;-57
2023/03/20 10:38:10;;;;;;;0.90;0.90;;;;;;;;;;5009227;28;20046;-57
2023/03/20 10:40:40;;;;;;;1.20;1.10;;;;;;;;;;5027315;28;20045;-58
2023/03/20 10:43:20;;;;;;;2.55;1.75;;;;;;;;;;5007977;28;20050;-56
2023/03/20 10:45:59;;;;;;;4.25;1.83;;;;;;;;;;5006910;28;20050;-58
2023/03/20 10:48:32;;;;;;;1.83;1.45;;;;;;;;;;5010061;28;20042;-57
2023/03/20 10:51:01;;;;;;;1.40;1.30;;;;;;;;;;5009471;28;20052;-58
2023/03/20 10:53:40;;;;;;;1.30;1.20;;;;;;;;;;5009207;28;20049;-58
2023/03/20 10:56:14;;;;;;;1.88;1.20;;;;;;;;;;5007406;28;20061;-57
2023/03/20 10:58:43;;;;;;;1.83;1.48;;;;;;;;;;5009529;28;20503;-57
2023/03/20 11:01:09;;;;;;;4.45;1.60;;;;;;;;;;5006006;28;20053;-58
2023/03/20 11:03:38;;;;;;;2.05;1.67;;;;;;;;;;5008942;28;20049;-58
2023/03/20 11:06:27;;;;;;;1.75;1.42;;;;;;;;;;5010667;28;20455;-58
2023/03/20 11:08:54;;;;;;;2.72;1.83;;;;;;;;;;5008192;28;20034;-58
2023/03/20 11:11:33;;;;;;;2.95;1.77;;;;;;;;;;5007515;28;20029;-57
2023/03/20 11:14:15;;;;;;;3.88;2.13;;;;;;;;;;5009828;28;20049;-58
2023/03/20 11:16:41;;;;;;;2.75;1.88;;;;;;;;;;5005603;28;20038;-57
2023/03/20 11:19:10;;;;;;;3.20;2.40;;;;;;;;;;5007920;28;20050;-57
2023/03/20 11:21:45;;;;;;;2.38;1.80;;;;;;;;;;5005290;28;20049;-58
2023/03/20 11:24:36;;;;;;;1.85;1.40;;;;;;;;;;5009681;28;20054;-57
2023/03/20 11:27:27;;;;;;;2.70;1.35;;;;;;;;;;5006710;28;20046;-57
2023/03/20 11:29:55;;;;;;;3.55;1.90;;;;;;;;;;5018051;28;20064;-58
2023/03/20 11:32:21;;;;;;;3.75;1.88;;;;;;;;;;5006980;28;20106;-58
2023/03/20 11:34:51;;;;;;;2.90;1.70;;;;;;;;;;5007737;28;20407;-57
2023/03/20 11:37:25;;;;;;;3.42;2.22;;;;;;;;;;5006813;28;20038;-58
2023/03/20 11:39:57;;;;;;;2.72;1.92;;;;;;;;;;5007558;28;20050;-57
2023/03/20 11:42:29;;;;;;;3.08;2.08;;;;;;;;;;5007230;28;20025;-57
2023/03/20 11:45:01;;;;;;;2.42;1.70;;;;;;;;;;5006580;28;20038;-57
2023/03/20 11:47:32;;;;;;;1.65;1.50;;;;;;;;;;5008108;28;20038;-57
2023/03/20 11:50:02;;;;;;;2.15;1.58;;;;;;;;;;5004986;28;20037;-54
2023/03/20 11:52:31;;;;;;;;;;;;;;;;;;5007821;28;20041;-56
2023/03/20 11:54:59;;;;;;;3.80;1.67;;;;;;;;;;5007263;28;19913;-57
2023/03/20 11:57:31;;;;;;;1.65;1.48;;;;;;;;;;5002426;28;20034;-58
2023/03/20 12:00:04;;;;;;;2.53;1.60;;;;;;;;;;5005785;28;20048;-58
2023/03/20 12:02:31;;;;;;;1.52;1.20;;;;;;;;;;5007633;28;20037;-57
2023/03/20 12:05:00;;;;;;;2.05;1.35;;;;;;;;;;4997809;28;20054;-57
2023/03/20 12:07:31;;;;;;;2.83;1.33;;;;;;;;;;5004918;28;20427;-57
2023/03/20 12:10:03;;;;;;;1.70;1.30;;;;;;;;;;5007893;28;20038;-57
2023/03/20 12:12:39;;;;;;;1.52;1.42;;;;;;;;;;5008973;28;20033;-57
2023/03/20 12:15:11;;;;;;;1.30;1.20;;;;;;;;;;5006747;28;20046;-56
2023/03/20 12:17:57;;;;;;;1.52;1.30;;;;;;;;;;5007754;28;20568;-56
2023/03/20 12:20:26;;;;;;;1.75;1.30;;;;;;;;;;5007025;28;20041;-56
2023/03/20 12:23:04;;;;;;;2.60;1.15;;;;;;;;;;5009540;28;20425;-59
2023/03/20 12:25:39;;;;;;;1.30;1.20;;;;;;;;;;5007546;28;20026;-56
2023/03/20 12:28:14;;;;;;;1.40;1.30;;;;;;;;;;5008224;28;20040;-58
2023/03/20 12:31:03;;;;;;;2.42;1.20;;;;;;;;;;5005433;28;20041;-57
2023/03/20 12:33:51;;;;;;;1.90;1.45;;;;;;;;;;5007476;28;20068;-56
2023/03/20 12:36:28;;;;;;;1.98;1.38;;;;;;;;;;5006157;28;20034;-57
2023/03/20 12:38:54;;;;;;;2.05;1.70;;;;;;;;;;5006576;28;20030;-56
2023/03/20 12:41:28;;;;;;;2.25;1.60;;;;;;;;;;5005575;28;20093;-57
2023/03/20 12:44:14;;;;;;;1.45;1.20;;;;;;;;;;5007779;28;20049;-57
2023/03/20 12:46:43;;;;;;;3.65;1.60;;;;;;;;;;5004974;28;20030;-57
2023/03/20 12:49:19;;;;;;;5.28;2.55;;;;;;;;;;5006311;28;20049;-58
2023/03/20 12:52:00;;;;;;;6.05;2.60;;;;;;;;;;5005903;28;20057;-58
2023/03/20 12:54:45;;;;;;;13.40;6.03;;;;;;;;;;5003663;28;20511;-58
2023/03/20 12:57:40;;;;;;;11.68;2.83;;;;;;;;;;5006913;28;20053;-58
2023/03/20 13:00:33;;;;;;;2.03;1.40;;;;;;;;;;5004912;28;20045;-57
2023/03/20 13:03:35;;;;;;;1.90;1.25;;;;;;;;;;5004916;28;20033;-57
2023/03/20 13:06:26;;;;;;;1.90;1.50;;;;;;;;;;5003040;28;20057;-57
2023/03/20 13:09:03;;;;;;;6.55;1.70;;;;;;;;;;5026888;28;20046;-62
2023/03/20 13:11:29;;;;;;;2.28;1.55;;;;;;;;;;5004571;28;20037;-60
2023/03/20 13:14:08;;;;;;;2.00;1.65;;;;;;;;;;5008277;28;20406;-60
2023/03/20 13:16:46;;;;;;;2.88;1.80;;;;;;;;;;5007965;28;20046;-60
2023/03/20 13:19:24;;;;;;;2.50;1.60;;;;;;;;;;5005527;28;20033;-59
2023/03/20 13:22:16;;;;;;;2.28;1.42;;;;;;;;;;5006249;28;20057;-60
2023/03/20 13:25:05;;;;;;;2.33;1.90;;;;;;;;;;4999800;28;20030;-60
2023/03/20 13:27:48;;;;;;;3.35;2.08;;;;;;;;;;5008592;28;20812;-60
2023/03/20 13:30:32;;;;;;;3.55;1.90;;;;;;;;;;5005538;28;20038;-60
2023/03/20 13:33:23;;;;;;;5.43;2.20;;;;;;;;;;5006045;28;20058;-60
2023/03/20 13:36:21;;;;;;;3.63;1.90;;;;;;;;;;5007950;28;20050;-60
2023/03/20 13:38:55;;;;;;;2.92;2.00;;;;;;;;;;5010443;28;20519;-59
2023/03/20 13:41:24;;;;;;;4.22;2.30;;;;;;;;;;5011017;28;20040;-60
2023/03/20 13:43:57;;;;;;;3.42;2.10;;;;;;;;;;5010579;28;20438;-60
2023/03/20 13:46:30;;;;;;;6.55;2.28;;;;;;;;;;4993109;28;20046;-61
2023/03/20 13:49:03;;;;;;;3.97;2.45;;;;;;;;;;4995323;28;20034;-60
2023/03/20 13:51:43;;;;;;;3.20;2.50;;;;;;;;;;5004711;28;20042;-59
2023/03/20 13:54:21;;;;;;;3.92;2.20;;;;;;;;;;4991566;28;20042;-60
2023/03/20 13:56:59;;;;;;;3.70;2.30;;;;;;;;;;5009672;28;20042;-62
2023/03/20 13:59:44;;;;;;;5.47;2.38;;;;;;;;;;5010625;28;20500;-61
2023/03/20 14:02:19;;;;;;;6.82;2.42;;;;;;;;;;5009131;28;20058;-60
2023/03/20 14:04:49;;;;;;;4.88;2.42;;;;;;;;;;5010827;28;20045;-60
2023/03/20 14:07:34;;;;;;;3.10;2.10;;;;;;;;;;5010425;28;20054;-61
2023/03/20 14:10:21;;;;;;;5.07;2.45;;;;;;;;;;5008995;28;20061;-61
2023/03/20 14:13:02;;;;;;;5.50;2.95;;;;;;;;;;5009076;28;20038;-61
2023/03/20 14:15:35;;;;;;;3.13;2.30;;;;;;;;;;4992608;28;20048;-61
2023/03/20 14:18:14;;;;;;;4.00;2.50;;;;;;;;;;5010233;28;20395;-62
2023/03/20 14:20:42;;;;;;;3.78;2.53;;;;;;;;;;5010297;28;20053;-59
2023/03/20 14:23:20;;;;;;;10.50;3.00;;;;;;;;;;5010684;28;20048;-59
2023/03/20 14:25:47;;;;;;;4.95;2.45;;;;;;;;;;5008775;28;20034;-61
2023/03/20 14:28:13;;;;;;;3.53;2.35;;;;;;;;;;5011282;28;20052;-61
2023/03/20 14:30:43;;;;;;;5.78;2.65;;;;;;;;;;5008916;28;20093;-60
2023/03/20 14:33:15;;;;;;;3.30;2.53;;;;;;;;;;5008436;28;20049;-61
2023/03/20 14:35:51;;;;;;;5.53;2.40;;;;;;;;;;5010542;28;20041;-61
2023/03/20 14:38:19;;;;;;;3.30;2.10;;;;;;;;;;5010170;28;20049;-61
2023/03/20 14:41:16;;;;;;;4.60;2.20;;;;;;;;;;5010333;28;20073;-58
2023/03/20 14:44:07;;;;;;;5.80;2.97;;;;;;;;;;5009103;28;20052;-61
2023/03/20 14:46:46;;;;;;;5.57;3.50;;;;;;;;;;5007250;28;20510;-60
2023/03/20 14:49:26;;;;;;;3.25;2.28;;;;;;;;;;5007705;28;20492;-60
2023/03/20 14:51:59;;;;;;;5.70;2.63;;;;;;;;;;4992497;28;20065;-60
2023/03/20 14:54:29;;;;;;;4.28;2.58;;;;;;;;;;4977447;28;20042;-63
2023/03/20 14:57:17;;;;;;;11.82;3.65;;;;;;;;;;5010572;28;20057;-61
2023/03/20 14:59:46;;;;;;;5.50;2.70;;;;;;;;;;5006151;28;20026;-61
2023/03/20 15:02:25;;;;;;;5.13;2.95;;;;;;;;;;5008591;28;20061;-61
2023/03/20 15:04:52;;;;;;;10.40;3.40;;;;;;;;;;5009420;28;20049;-60
2023/03/20 15:07:27;;;;;;;8.65;3.00;;;;;;;;;;5006970;28;20034;-61
2023/03/20 15:09:58;;;;;;;5.70;2.50;;;;;;;;;;5038358;28;20030;-60
2023/03/20 15:12:33;;;;;;;4.75;2.40;;;;;;;;;;5007349;28;20041;-61
2023/03/20 15:15:06;;;;;;;6.68;2.83;;;;;;;;;;5009501;28;20054;-60
2023/03/20 15:17:43;;;;;;;4.93;2.80;;;;;;;;;;5009296;28;20029;-61
2023/03/20 15:20:30;;;;;;;4.55;2.92;;;;;;;;;;5008044;28;20237;-61
2023/03/20 15:23:01;;;;;;;10.10;2.95;;;;;;;;;;5009061;28;20496;-60
2023/03/20 15:25:37;;;;;;;5.25;2.47;;;;;;;;;;5009045;28;20499;-60